Time;durP1;ratioP1;P1;durP2;ratioP2;P2;SDS_P1;SDS_P2;PMS_P1;PMS_P2;Temp;Humidity;BMP_temperature;BMP_pressure;BME280_temperature;BME280_humidity;BME280_pressure;Samples;Min_cycle;Max_cycle;Signal;HPM_P1;HPM_P2
2023/03/26 00:01:53;;;;;;;28.85;5.82;;;8.00;99.90;;;;;;6246658;22;20023;-77
2023/03/26 00:04:20;;;;;;;18.30;5.10;;;8.00;99.90;;;;;;6248011;22;20016;-77
2023/03/26 00:06:50;;;;;;;20.55;5.47;;;8.00;99.90;;;;;;6276312;22;20039;-77
2023/03/26 00:09:16;;;;;;;24.40;4.72;;;8.00;99.90;;;;;;6276051;22;20031;-77
2023/03/26 00:11:45;;;;;;;21.58;4.55;;;8.10;99.90;;;;;;6276296;22;20069;-77
2023/03/26 00:14:12;;;;;;;23.15;5.93;;;7.90;99.90;;;;;;6276128;22;20346;-77
2023/03/26 00:16:40;;;;;;;24.77;4.90;;;8.10;99.90;;;;;;6276009;22;20034;-77
2023/03/26 00:19:07;;;;;;;18.65;4.90;;;7.90;99.90;;;;;;6275416;22;20018;-77
2023/03/26 00:21:33;;;;;;;20.83;5.13;;;7.90;99.90;;;;;;6275909;22;20128;-77
2023/03/26 00:24:09;;;;;;;20.90;5.05;;;7.80;99.90;;;;;;6275953;22;20016;-77
2023/03/26 00:26:37;;;;;;;21.20;4.88;;;7.80;99.90;;;;;;6223307;22;20446;-77
2023/03/26 00:29:03;;;;;;;21.65;5.57;;;7.80;99.90;;;;;;6248836;22;20074;-77
2023/03/26 00:31:29;;;;;;;19.08;4.60;;;7.70;99.90;;;;;;6275886;22;20106;-77
2023/03/26 00:33:55;;;;;;;19.58;4.95;;;7.70;99.90;;;;;;6275376;22;20012;-77
2023/03/26 00:36:24;;;;;;;22.60;4.75;;;7.70;99.90;;;;;;6275872;22;20346;-77
2023/03/26 00:38:51;;;;;;;22.73;4.97;;;7.70;99.90;;;;;;6275842;22;20012;-77
2023/03/26 00:41:25;;;;;;;22.15;5.13;;;7.70;99.90;;;;;;6275862;22;20008;-77
2023/03/26 00:43:57;;;;;;;21.83;5.80;;;7.70;99.90;;;;;;6275425;22;20086;-77
2023/03/26 00:46:27;;;;;;;29.23;5.43;;;7.90;99.90;;;;;;6248153;22;20015;-77
2023/03/26 00:48:57;;;;;;;24.15;5.47;;;7.70;99.90;;;;;;6275567;22;20026;-77
2023/03/26 00:51:23;;;;;;;28.98;6.15;;;7.80;99.90;;;;;;6223086;22;20016;-78
2023/03/26 00:53:50;;;;;;;21.13;4.60;;;7.80;99.90;;;;;;6275589;22;20018;-77
2023/03/26 00:56:16;;;;;;;23.50;4.57;;;7.90;99.90;;;;;;6248148;22;20016;-78
2023/03/26 00:58:42;;;;;;;23.00;4.82;;;7.80;99.90;;;;;;6248422;22;20102;-77
2023/03/26 01:01:14;;;;;;;25.40;4.47;;;7.80;99.90;;;;;;6275627;22;20047;-78
2023/03/26 01:03:42;;;;;;;22.88;4.43;;;7.80;99.90;;;;;;6274725;22;20012;-77
2023/03/26 01:06:26;;;;;;;16.77;4.45;;;7.80;99.90;;;;;;6275552;22;20330;-77
2023/03/26 01:08:53;;;;;;;;;;;7.80;99.90;;;;;;6248418;22;20018;-77
2023/03/26 01:11:26;;;;;;;24.05;4.53;;;8.00;99.90;;;;;;6248203;22;20571;-77
2023/03/26 01:13:59;;;;;;;22.25;4.75;;;7.70;99.90;;;;;;6222093;22;20022;-77
2023/03/26 01:16:36;;;;;;;18.60;4.87;;;7.70;99.90;;;;;;6248274;22;20039;-77
2023/03/26 01:19:19;;;;;;;16.02;4.10;;;7.70;99.90;;;;;;6247802;22;20231;-77
2023/03/26 01:21:46;;;;;;;22.33;4.68;;;7.70;99.90;;;;;;6247857;22;20018;-78
2023/03/26 01:24:12;;;;;;;15.93;4.35;;;7.70;99.90;;;;;;6222540;22;20389;-77
2023/03/26 01:26:59;;;;;;;17.90;4.35;;;7.70;99.90;;;;;;6275410;22;20019;-78
2023/03/26 01:29:34;;;;;;;19.55;4.57;;;7.70;99.90;;;;;;6247987;22;20020;-77
2023/03/26 01:32:13;;;;;;;21.00;4.35;;;7.70;99.90;;;;;;6247481;22;20023;-78
2023/03/26 01:34:56;;;;;;;16.60;4.32;;;7.60;99.90;;;;;;6275657;22;20015;-76
2023/03/26 01:37:33;;;;;;;21.00;5.03;;;7.60;99.90;;;;;;6248453;22;20020;-77
2023/03/26 01:40:08;;;;;;;19.75;4.53;;;7.70;99.90;;;;;;6223347;22;20406;-77
2023/03/26 01:42:57;;;;;;;16.55;4.45;;;7.50;99.90;;;;;;6248338;22;20019;-77
2023/03/26 01:45:31;;;;;;;19.10;4.68;;;7.50;99.90;;;;;;6279513;22;20016;-77
2023/03/26 01:47:57;;;;;;;21.70;4.45;;;7.50;99.90;;;;;;6253197;22;20043;-77
2023/03/26 01:50:22;;;;;;;18.50;4.78;;;7.50;99.90;;;;;;6253853;22;20008;-76
2023/03/26 01:52:48;;;;;;;27.38;5.00;;;7.50;99.90;;;;;;6252962;22;20100;-77
2023/03/26 01:55:14;;;;;;;21.92;4.93;;;7.50;99.90;;;;;;6279089;22;20012;-77
2023/03/26 01:57:59;;;;;;;20.33;4.68;;;7.40;99.90;;;;;;6277198;22;20030;-77
2023/03/26 02:00:32;;;;;;;21.23;4.30;;;7.40;99.90;;;;;;6222054;22;20072;-77
2023/03/26 02:03:01;;;;;;;24.35;4.95;;;7.40;99.90;;;;;;6247762;22;20015;-77
2023/03/26 02:05:46;;;;;;;24.90;5.55;;;7.40;99.90;;;;;;6275116;22;20073;-78
2023/03/26 02:08:34;;;;;;;26.63;5.30;;;7.30;99.90;;;;;;6247381;22;20012;-77
2023/03/26 02:11:03;;;;;;;19.70;4.95;;;7.30;99.90;;;;;;6247656;22;20142;-78
2023/03/26 02:13:30;;;;;;;26.30;5.75;;;7.20;99.90;;;;;;6247479;22;20015;-77
2023/03/26 02:15:59;;;;;;;28.17;6.25;;;7.30;99.90;;;;;;6221571;22;20016;-77
2023/03/26 02:18:34;;;;;;;29.15;6.15;;;7.00;99.90;;;;;;6247233;22;20015;-77
2023/03/26 02:21:04;;;;;;;27.33;6.40;;;7.00;99.90;;;;;;6274919;22;20395;-76
2023/03/26 02:23:34;;;;;;;22.15;5.97;;;6.90;99.90;;;;;;6274780;22;20008;-77
2023/03/26 02:26:01;;;;;;;25.90;5.63;;;6.80;99.90;;;;;;6274893;22;20022;-77
2023/03/26 02:28:27;;;;;;;28.58;5.72;;;6.80;99.90;;;;;;6247297;22;20012;-77
2023/03/26 02:30:56;;;;;;;20.60;4.88;;;6.80;99.90;;;;;;6246800;22;20018;-77
2023/03/26 02:33:22;;;;;;;21.40;4.47;;;6.70;99.90;;;;;;6274589;22;20011;-77
2023/03/26 02:35:48;;;;;;;21.88;5.25;;;6.60;99.90;;;;;;6274572;22;20477;-77
2023/03/26 02:38:13;;;;;;;27.88;4.80;;;6.70;99.90;;;;;;6274381;22;20050;-77
2023/03/26 02:40:40;;;;;;;26.95;5.47;;;6.50;99.90;;;;;;6247421;22;20019;-77
2023/03/26 02:43:06;;;;;;;22.85;4.78;;;6.50;99.90;;;;;;6247182;22;20049;-77
2023/03/26 02:45:32;;;;;;;23.63;5.35;;;6.50;99.90;;;;;;6246713;22;20011;-78
2023/03/26 02:47:59;;;;;;;28.33;5.32;;;6.50;99.90;;;;;;6247071;22;20022;-77
2023/03/26 02:50:25;;;;;;;28.02;6.00;;;6.60;99.90;;;;;;6247056;22;20042;-77
2023/03/26 02:52:51;;;;;;;23.90;5.00;;;6.60;99.90;;;;;;6221948;22;20012;-77
2023/03/26 02:55:16;;;;;;;27.92;5.68;;;6.50;99.90;;;;;;6247391;22;20019;-77
2023/03/26 02:57:42;;;;;;;24.02;5.18;;;6.60;99.90;;;;;;6274730;22;20082;-77
2023/03/26 03:00:12;;;;;;;31.35;6.03;;;6.70;99.90;;;;;;6246493;22;20461;-77
2023/03/26 03:02:37;;;;;;;24.00;5.18;;;6.70;99.90;;;;;;6246475;22;20442;-77
2023/03/26 03:05:04;;;;;;;27.92;5.25;;;6.80;99.90;;;;;;6247071;22;20018;-77
2023/03/26 03:07:30;;;;;;;24.58;5.13;;;6.80;99.90;;;;;;6246973;22;20019;-77
2023/03/26 03:10:01;;;;;;;31.85;5.72;;;6.80;99.90;;;;;;6221508;22;20019;-77
2023/03/26 03:12:27;;;;;;;27.15;5.72;;;6.90;99.90;;;;;;6247006;22;20054;-77
2023/03/26 03:14:52;;;;;;;26.73;5.00;;;6.90;99.90;;;;;;6246296;22;20352;-77
2023/03/26 03:17:19;;;;;;;26.92;5.35;;;6.90;99.90;;;;;;6247192;22;20043;-77
2023/03/26 03:19:45;;;;;;;35.70;6.00;;;6.90;99.90;;;;;;6274211;22;20019;-77
2023/03/26 03:22:11;;;;;;;34.60;5.70;;;6.90;99.90;;;;;;6273824;22;20423;-78
2023/03/26 03:24:37;;;;;;;23.83;5.45;;;6.90;99.90;;;;;;6274705;22;20027;-77
2023/03/26 03:27:03;;;;;;;25.23;5.45;;;7.00;99.90;;;;;;6274501;22;20039;-78
2023/03/26 03:29:29;;;;;;;29.50;5.45;;;7.00;99.90;;;;;;6274366;22;20074;-77
2023/03/26 03:31:55;;;;;;;22.58;5.57;;;7.00;99.90;;;;;;6274198;22;20034;-77
2023/03/26 03:34:20;;;;;;;21.10;5.22;;;7.00;99.90;;;;;;6246943;22;20093;-77
2023/03/26 03:36:47;;;;;;;23.17;5.25;;;7.00;99.90;;;;;;6246428;22;20019;-77
2023/03/26 03:39:16;;;;;;;27.58;5.35;;;7.00;99.90;;;;;;6246571;22;20026;-77
2023/03/26 03:41:41;;;;;;;24.30;6.10;;;7.00;99.90;;;;;;6220976;22;20027;-77
2023/03/26 03:44:07;;;;;;;26.88;5.82;;;7.00;99.90;;;;;;6221350;22;20347;-77
2023/03/26 03:46:33;;;;;;;24.98;6.20;;;7.00;99.90;;;;;;6246738;22;20015;-77
2023/03/26 03:48:59;;;;;;;29.77;5.93;;;7.00;99.90;;;;;;6274093;22;20077;-77
2023/03/26 03:51:24;;;;;;;29.42;5.18;;;7.00;99.90;;;;;;6274199;22;20047;-77
2023/03/26 03:53:51;;;;;;;25.75;5.45;;;7.10;99.90;;;;;;6246809;22;20031;-77
2023/03/26 03:56:18;;;;;;;25.60;5.63;;;7.00;99.90;;;;;;6246585;22;20018;-77
2023/03/26 03:58:45;;;;;;;34.17;5.97;;;7.10;99.90;;;;;;6246548;22;20502;-77
2023/03/26 04:01:12;;;;;;;31.58;5.60;;;7.00;99.90;;;;;;6246562;22;20011;-78
2023/03/26 04:03:40;;;;;;;29.38;5.45;;;7.00;99.90;;;;;;6247162;22;20112;-77
2023/03/26 04:06:09;;;;;;;31.30;6.05;;;7.00;99.90;;;;;;6273756;22;20304;-77
2023/03/26 04:08:35;;;;;;;22.30;4.90;;;7.00;99.90;;;;;;6246617;22;20154;-77
2023/03/26 04:11:01;;;;;;;33.08;6.60;;;7.00;99.90;;;;;;6273581;22;20382;-77
2023/03/26 04:13:27;;;;;;;36.83;5.53;;;7.00;99.90;;;;;;6221151;22;20351;-77
2023/03/26 04:15:53;;;;;;;36.78;6.43;;;7.00;99.90;;;;;;6273940;22;20088;-77
2023/03/26 04:18:19;;;;;;;27.75;5.68;;;6.90;99.90;;;;;;6274029;22;20008;-77
2023/03/26 04:20:45;;;;;;;31.42;6.35;;;6.90;99.90;;;;;;6246400;22;20011;-78
2023/03/26 04:23:12;;;;;;;25.10;4.85;;;6.90;99.90;;;;;;6246897;22;20016;-77
2023/03/26 04:25:40;;;;;;;29.48;5.30;;;6.90;99.90;;;;;;6273426;22;20099;-76
2023/03/26 04:28:07;;;;;;;32.03;5.13;;;6.80;99.90;;;;;;6246552;22;20019;-77
2023/03/26 04:30:34;;;;;;;30.65;5.55;;;6.80;99.90;;;;;;6246426;22;20061;-77
2023/03/26 04:33:05;;;;;;;26.95;5.53;;;6.70;99.90;;;;;;6273942;22;20011;-76
2023/03/26 04:35:33;;;;;;;27.15;5.80;;;6.60;99.90;;;;;;6246816;22;20012;-77
2023/03/26 04:38:05;;;;;;;28.40;5.20;;;6.80;99.90;;;;;;6273792;22;20008;-77
2023/03/26 04:40:33;;;;;;;34.38;6.15;;;6.50;99.90;;;;;;6246006;22;20023;-78
2023/03/26 04:43:02;;;;;;;28.10;5.55;;;6.40;99.90;;;;;;6273901;22;20075;-77
2023/03/26 04:45:30;;;;;;;30.45;5.70;;;6.30;99.90;;;;;;6246354;22;20008;-77
2023/03/26 04:48:01;;;;;;;24.65;5.10;;;6.20;99.90;;;;;;6274271;22;20015;-78
2023/03/26 04:50:27;;;;;;;32.58;5.55;;;6.20;99.90;;;;;;6275386;22;20031;-77
2023/03/26 04:52:55;;;;;;;26.50;5.47;;;6.20;99.90;;;;;;6248674;22;20073;-77
2023/03/26 04:55:34;;;;;;;36.45;6.30;;;6.00;99.90;;;;;;6247735;22;20116;-77
2023/03/26 04:58:04;;;;;;;24.58;5.13;;;6.00;99.90;;;;;;6248289;22;20381;-77
2023/03/26 05:00:30;;;;;;;26.88;5.15;;;5.90;99.90;;;;;;6275654;22;20023;-78
2023/03/26 05:02:58;;;;;;;24.52;5.10;;;5.80;99.90;;;;;;6275402;22;20016;-78
2023/03/26 05:05:25;;;;;;;20.77;4.63;;;5.70;99.90;;;;;;6248689;22;20034;-77
2023/03/26 05:07:51;;;;;;;27.77;4.72;;;5.60;99.90;;;;;;6275344;22;20034;-77
2023/03/26 05:10:19;;;;;;;28.83;5.55;;;5.50;99.90;;;;;;6247620;22;20043;-77
2023/03/26 05:12:45;;;;;;;25.50;5.22;;;5.50;99.90;;;;;;6248163;22;20015;-76
2023/03/26 05:15:15;;;;;;;29.52;5.32;;;5.40;99.90;;;;;;6222733;22;20016;-77
2023/03/26 05:17:41;;;;;;;24.90;5.18;;;5.40;99.90;;;;;;6248085;22;20015;-76
2023/03/26 05:20:26;;;;;;;27.35;4.95;;;5.30;99.90;;;;;;6275274;22;20011;-77
2023/03/26 05:22:52;;;;;;;25.25;5.13;;;5.30;99.90;;;;;;6222588;22;20019;-77
2023/03/26 05:25:18;;;;;;;29.88;5.55;;;5.30;99.90;;;;;;6222499;22;20016;-76
2023/03/26 05:27:44;;;;;;;33.80;6.40;;;5.30;99.90;;;;;;6248220;22;20019;-77
2023/03/26 05:30:16;;;;;;;24.73;5.28;;;5.40;99.90;;;;;;6275392;22;20012;-79
2023/03/26 05:32:46;;;;;;;34.25;6.05;;;5.40;99.90;;;;;;6274937;22;20027;-79
2023/03/26 05:35:11;;;;;;;33.72;5.97;;;5.70;99.90;;;;;;6247795;22;20094;-78
2023/03/26 05:37:42;;;;;;;27.63;5.15;;;5.50;99.90;;;;;;6222165;22;20050;-79
2023/03/26 05:40:11;;;;;;;32.20;6.82;;;5.50;99.90;;;;;;6247979;22;20054;-79
2023/03/26 05:42:38;;;;;;;23.10;5.70;;;5.50;99.90;;;;;;6222851;22;20022;-77
2023/03/26 05:45:05;;;;;;;28.70;4.95;;;5.60;99.90;;;;;;6247829;22;20015;-76
2023/03/26 05:47:31;;;;;;;26.35;4.90;;;5.60;99.90;;;;;;6247828;22;20015;-77
2023/03/26 05:49:57;;;;;;;38.75;5.75;;;5.70;99.90;;;;;;6247965;22;20176;-77
2023/03/26 05:52:23;;;;;;;27.05;5.47;;;5.70;99.90;;;;;;6247232;22;20447;-77
2023/03/26 05:54:49;;;;;;;31.65;5.57;;;5.80;99.90;;;;;;6247462;22;20019;-77
2023/03/26 05:57:15;;;;;;;29.27;5.40;;;5.80;99.90;;;;;;6247592;22;20023;-79
2023/03/26 05:59:41;;;;;;;31.02;5.20;;;5.90;99.90;;;;;;6274622;22;20023;-79
2023/03/26 06:02:08;;;;;;;29.65;5.63;;;6.00;99.90;;;;;;6274861;22;20012;-79
2023/03/26 06:04:34;;;;;;;20.95;4.78;;;6.00;99.90;;;;;;6274540;22;20016;-77
2023/03/26 06:07:01;;;;;;;24.23;4.90;;;6.00;99.90;;;;;;6274616;22;20485;-77
2023/03/26 06:09:26;;;;;;;24.77;4.88;;;6.10;99.90;;;;;;6247393;22;20312;-79
2023/03/26 06:11:52;;;;;;;19.90;5.05;;;6.20;99.90;;;;;;6275373;22;20019;-76
2023/03/26 06:14:17;;;;;;;22.80;4.78;;;6.30;99.90;;;;;;6247683;22;20548;-76
2023/03/26 06:16:43;;;;;;;27.73;5.68;;;6.30;99.90;;;;;;6275277;22;20611;-79
2023/03/26 06:19:09;;;;;;;28.75;6.28;;;6.40;99.90;;;;;;6248117;22;20016;-79
2023/03/26 06:21:34;;;;;;;23.58;4.57;;;6.50;99.90;;;;;;6247858;22;20402;-79
2023/03/26 06:24:00;;;;;;;18.00;4.90;;;6.50;99.90;;;;;;6278917;22;20019;-77
2023/03/26 06:26:26;;;;;;;16.73;4.13;;;6.60;99.90;;;;;;6250671;22;20091;-77
2023/03/26 06:28:51;;;;;;;22.38;4.65;;;6.60;99.90;;;;;;6249946;22;20019;-79
2023/03/26 06:31:18;;;;;;;25.75;5.22;;;6.70;99.90;;;;;;6276665;22;20016;-77
2023/03/26 06:33:43;;;;;;;24.55;4.15;;;6.70;99.90;;;;;;6221852;22;20076;-77
2023/03/26 06:36:09;;;;;;;25.52;4.60;;;6.70;99.90;;;;;;6273981;22;20046;-77
2023/03/26 06:38:35;;;;;;;19.17;4.35;;;6.80;99.90;;;;;;6247005;22;20128;-77
2023/03/26 06:41:05;;;;;;;23.42;4.88;;;6.90;99.90;;;;;;6274585;22;20091;-77
2023/03/26 06:43:35;;;;;;;28.20;5.25;;;6.90;99.90;;;;;;6247500;22;20012;-77
2023/03/26 06:46:01;;;;;;;24.85;5.40;;;6.90;99.90;;;;;;6221680;22;20015;-77
2023/03/26 06:48:27;;;;;;;20.48;5.05;;;7.00;99.90;;;;;;6246789;22;20012;-77
2023/03/26 06:50:53;;;;;;;22.30;4.90;;;7.30;99.90;;;;;;6273948;22;20104;-79
2023/03/26 06:53:19;;;;;;;27.73;4.93;;;7.00;99.90;;;;;;6274135;22;20016;-77
2023/03/26 06:55:44;;;;;;;25.85;4.68;;;7.00;99.90;;;;;;6222257;22;20081;-77
2023/03/26 06:58:11;;;;;;;25.88;4.20;;;7.00;99.90;;;;;;6274870;22;20390;-78
2023/03/26 07:00:38;;;;;;;23.77;5.18;;;7.00;99.90;;;;;;6221607;22;20007;-78
2023/03/26 07:03:04;;;;;;;22.13;4.90;;;7.00;99.90;;;;;;6241456;23;20027;-76
2023/03/26 07:05:30;;;;;;;24.50;5.47;;;7.00;99.90;;;;;;6243143;22;20156;-76
2023/03/26 07:07:56;;;;;;;20.52;5.20;;;7.00;99.90;;;;;;6239768;23;20091;-77
2023/03/26 07:10:21;;;;;;;21.80;5.03;;;7.50;99.90;;;;;;6242020;23;20012;-77
2023/03/26 07:12:47;;;;;;;25.58;5.03;;;7.20;99.90;;;;;;6216172;23;20054;-77
2023/03/26 07:15:13;;;;;;;22.02;4.70;;;7.20;99.90;;;;;;6242947;22;20019;-77
2023/03/26 07:17:39;;;;;;;26.77;4.93;;;7.20;99.90;;;;;;6216153;23;20039;-77
2023/03/26 07:20:06;;;;;;;23.05;5.63;;;7.20;99.90;;;;;;6242937;22;20020;-76
2023/03/26 07:22:34;;;;;;;26.15;5.50;;;7.10;99.90;;;;;;6241501;23;20022;-76
2023/03/26 07:25:00;;;;;;;30.15;12.52;;;7.10;99.90;;;;;;6241545;23;20070;-76
2023/03/26 07:27:45;;;;;;;19.75;4.40;;;7.20;99.90;;;;;;6243451;22;20019;-76
2023/03/26 07:30:29;;;;;;;21.67;4.57;;;7.30;99.90;;;;;;6243420;22;20012;-76
2023/03/26 07:33:03;;;;;;;26.48;4.35;;;7.40;99.90;;;;;;6241457;23;20094;-76
2023/03/26 07:35:54;;;;;;;29.05;8.45;;;7.50;99.90;;;;;;6242373;22;20470;-77
2023/03/26 07:38:31;;;;;;;23.70;5.57;;;7.50;99.90;;;;;;6216145;23;20023;-77
2023/03/26 07:41:10;;;;;;;21.75;4.60;;;7.50;99.90;;;;;;6242748;22;20016;-77
2023/03/26 07:43:57;;;;;;;24.27;5.38;;;7.60;99.90;;;;;;6241223;23;20016;-77
2023/03/26 07:46:28;;;;;;;26.55;5.15;;;7.50;99.90;;;;;;6241305;23;20096;-79
2023/03/26 07:48:57;;;;;;;22.02;4.75;;;7.60;99.90;;;;;;6240621;23;20004;-78
2023/03/26 07:51:23;;;;;;;26.33;7.57;;;7.60;99.90;;;;;;6240708;23;20509;-77
2023/03/26 07:53:48;;;;;;;19.63;4.30;;;7.60;99.90;;;;;;6242757;22;20019;-77
2023/03/26 07:56:17;;;;;;;23.00;4.45;;;7.50;99.90;;;;;;6240532;23;20024;-77
2023/03/26 07:59:15;;;;;;;17.88;4.30;;;7.60;99.90;;;;;;6240422;23;20016;-77
2023/03/26 08:01:49;;;;;;;19.85;3.95;;;7.60;99.90;;;;;;6240946;23;20027;-77
2023/03/26 08:04:38;;;;;;;23.25;7.13;;;7.70;99.90;;;;;;6240579;23;20081;-77
2023/03/26 08:07:06;;;;;;;23.15;6.82;;;7.80;99.90;;;;;;6241374;23;20008;-77
2023/03/26 08:10:03;;;;;;;19.55;4.80;;;7.80;99.90;;;;;;6241457;22;20070;-77
2023/03/26 08:12:58;;;;;;;21.75;5.40;;;7.90;99.90;;;;;;6243193;22;20023;-77
2023/03/26 08:15:52;;;;;;;18.98;4.85;;;7.80;99.90;;;;;;6240546;23;20012;-77
2023/03/26 08:18:26;;;;;;;;;;;7.80;99.90;;;;;;6239664;23;20016;-77
2023/03/26 08:21:25;;;;;;;19.15;4.63;;;7.90;99.90;;;;;;6239647;23;19918;-77
2023/03/26 08:24:15;;;;;;;20.95;4.38;;;7.80;99.90;;;;;;6241394;23;20018;-77
2023/03/26 08:27:05;;;;;;;21.58;5.55;;;7.80;99.90;;;;;;6241954;23;20296;-77
2023/03/26 08:29:56;;;;;;;22.55;6.60;;;8.00;99.90;;;;;;6243075;23;20015;-77
2023/03/26 08:32:23;;;;;;;31.17;9.23;;;8.10;99.90;;;;;;6242457;23;20501;-77
2023/03/26 08:34:48;;;;;;;39.42;13.73;;;8.20;99.90;;;;;;6217825;23;20012;-78
2023/03/26 08:37:14;;;;;;;23.90;4.68;;;8.30;99.90;;;;;;6243139;23;20012;-77
2023/03/26 08:39:41;;;;;;;47.75;18.58;;;8.40;99.90;;;;;;6243035;23;20008;-77
2023/03/26 08:42:29;;;;;;;52.55;21.38;;;8.30;99.90;;;;;;6245058;22;20031;-77
2023/03/26 08:45:19;;;;;;;18.73;4.63;;;8.40;99.90;;;;;;6244969;22;20096;-77
2023/03/26 08:48:27;;;;;;;18.33;4.05;;;8.40;99.90;;;;;;6242842;23;20445;-77
2023/03/26 08:51:23;;;;;;;28.83;5.03;;;8.50;99.90;;;;;;6221015;22;20034;-78
2023/03/26 08:54:07;;;;;;;19.50;5.25;;;8.50;99.90;;;;;;6243240;23;20122;-77
2023/03/26 08:56:52;;;;;;;30.63;19.38;;;8.60;99.90;;;;;;6243043;23;20073;-78
2023/03/26 08:59:26;;;;;;;17.95;5.25;;;8.60;99.90;;;;;;6217781;23;20091;-77
2023/03/26 09:02:19;;;;;;;17.10;4.82;;;8.60;99.90;;;;;;6244343;22;20102;-78
2023/03/26 09:04:55;;;;;;;14.77;4.40;;;8.60;99.90;;;;;;6217582;23;20020;-77
2023/03/26 09:07:44;;;;;;;20.48;4.85;;;8.60;99.90;;;;;;6217777;23;20012;-77
2023/03/26 09:11:00;;;;;;;16.23;3.40;;;8.80;99.90;;;;;;6217470;23;20018;-77
2023/03/26 09:13:33;;;;;;;15.93;4.90;;;8.90;99.90;;;;;;6181081;23;20013;-77
2023/03/26 09:16:34;;;;;;;15.85;3.42;;;8.80;99.90;;;;;;6180504;23;20092;-77
2023/03/26 09:19:02;;;;;;;21.15;5.97;;;8.80;99.90;;;;;;6131343;23;20008;-77
2023/03/26 09:21:55;;;;;;;25.42;5.05;;;8.70;99.90;;;;;;6156020;23;20013;-77
2023/03/26 09:24:52;;;;;;;23.95;5.60;;;8.90;99.90;;;;;;6155962;23;20113;-77
2023/03/26 09:27:36;;;;;;;19.25;4.78;;;9.20;99.90;;;;;;6163449;23;20495;-77
2023/03/26 09:30:19;;;;;;;18.70;3.85;;;9.00;99.90;;;;;;6155579;23;20132;-77
2023/03/26 09:33:04;;;;;;;20.73;4.95;;;9.00;99.90;;;;;;6156333;23;20400;-77
2023/03/26 09:35:45;;;;;;;26.77;9.80;;;9.00;99.90;;;;;;6130880;23;20013;-77
2023/03/26 09:38:42;;;;;;;17.92;5.55;;;9.00;99.90;;;;;;6155915;23;20452;-77
2023/03/26 09:41:13;;;;;;;33.47;14.85;;;8.90;99.90;;;;;;6181206;23;20109;-77
2023/03/26 09:43:57;;;;;;;31.05;15.25;;;9.00;99.90;;;;;;6198209;23;20024;-77
2023/03/26 09:46:56;;;;;;;16.58;7.13;;;8.90;99.90;;;;;;6241799;23;20066;-77
2023/03/26 09:49:37;;;;;;;20.17;4.57;;;9.20;99.90;;;;;;6242377;23;20008;-77
2023/03/26 09:52:29;;;;;;;19.08;4.97;;;9.40;99.90;;;;;;6242172;23;20008;-77
2023/03/26 09:55:05;;;;;;;14.57;3.78;;;9.40;99.90;;;;;;6217167;23;20122;-77
2023/03/26 09:57:56;;;;;;;16.55;4.82;;;9.50;99.90;;;;;;6216782;23;20091;-77
2023/03/26 10:00:54;;;;;;;19.90;4.55;;;9.60;99.90;;;;;;6216465;23;20023;-77
2023/03/26 10:03:33;;;;;;;15.15;4.90;;;9.40;99.90;;;;;;6216701;23;20354;-77
2023/03/26 10:06:25;;;;;;;18.05;4.40;;;9.30;99.90;;;;;;6242290;23;20012;-77
2023/03/26 10:09:12;;;;;;;19.45;4.30;;;9.40;99.90;;;;;;6230062;23;20477;-77
2023/03/26 10:11:56;;;;;;;17.95;5.32;;;9.20;99.90;;;;;;6217054;23;20008;-77
2023/03/26 10:14:34;;;;;;;16.38;4.13;;;9.20;99.90;;;;;;6242157;23;20083;-77
2023/03/26 10:17:27;;;;;;;18.67;5.28;;;9.40;99.90;;;;;;6242397;23;20101;-78
2023/03/26 10:20:07;;;;;;;23.20;4.72;;;9.30;99.90;;;;;;6242410;23;20416;-78
2023/03/26 10:23:17;;;;;;;14.07;4.07;;;9.20;99.90;;;;;;6242437;23;20028;-77
2023/03/26 10:26:11;;;;;;;18.50;4.75;;;9.00;99.90;;;;;;6268259;22;20016;-77
2023/03/26 10:28:44;;;;;;;18.45;4.75;;;9.00;99.90;;;;;;6241465;23;20019;-77
2023/03/26 10:31:10;;;;;;;;;;;9.10;99.90;;;;;;6242536;23;20027;-76
2023/03/26 10:33:55;;;;;;;20.75;4.88;;;9.00;99.90;;;;;;6216869;23;19915;-77
2023/03/26 10:36:37;;;;;;;21.85;6.88;;;9.00;99.90;;;;;;6216742;23;20019;-77
2023/03/26 10:39:32;;;;;;;21.52;7.38;;;9.00;99.90;;;;;;6242630;23;20078;-77
2023/03/26 10:42:18;;;;;;;20.85;4.30;;;9.00;99.90;;;;;;6242443;23;20087;-77
2023/03/26 10:45:11;;;;;;;18.15;4.22;;;8.90;99.90;;;;;;6216869;23;20057;-77
2023/03/26 10:48:09;;;;;;;24.05;8.68;;;8.70;99.90;;;;;;6244015;22;20008;-77
2023/03/26 10:51:06;;;;;;;15.70;4.47;;;8.80;99.90;;;;;;6217516;23;20090;-77
2023/03/26 10:53:57;;;;;;;19.35;4.65;;;8.60;99.90;;;;;;6219822;23;20012;-77
2023/03/26 10:56:38;;;;;;;18.80;4.72;;;8.70;99.90;;;;;;6246400;23;20006;-77
2023/03/26 10:59:11;;;;;;;38.28;19.80;;;8.70;99.90;;;;;;6249749;22;20009;-77
2023/03/26 11:01:54;;;;;;;23.05;5.78;;;8.80;99.90;;;;;;6244102;23;20051;-77
2023/03/26 11:04:37;;;;;;;21.13;5.68;;;8.70;99.90;;;;;;6242154;23;20069;-77
2023/03/26 11:07:57;;;;;;;17.03;4.57;;;8.80;99.90;;;;;;6244062;22;20072;-77
2023/03/26 11:10:48;;;;;;;12.52;3.28;;;9.00;99.90;;;;;;6155349;23;20013;-77
2023/03/26 11:13:31;;;;;;;15.82;3.67;;;8.90;99.90;;;;;;6179591;23;20071;-77
2023/03/26 11:16:05;;;;;;;17.80;3.88;;;8.90;99.90;;;;;;6155328;23;20017;-77
2023/03/26 11:18:42;;;;;;;17.10;4.15;;;8.90;99.90;;;;;;6180225;23;20433;-79
2023/03/26 11:21:32;;;;;;;15.25;4.13;;;8.80;99.90;;;;;;6180016;23;20017;-79
2023/03/26 11:24:39;;;;;;;14.55;3.70;;;8.90;99.90;;;;;;6180184;23;20017;-76
2023/03/26 11:27:33;;;;;;;14.75;3.72;;;8.80;99.90;;;;;;6179793;23;20173;-77
2023/03/26 11:30:16;;;;;;;12.45;3.35;;;8.80;99.90;;;;;;6180451;23;20013;-77
2023/03/26 11:32:47;;;;;;;16.17;3.65;;;8.70;99.90;;;;;;6155287;23;20107;-79
2023/03/26 11:35:26;;;;;;;20.75;4.10;;;8.70;99.90;;;;;;6155294;23;20020;-79
2023/03/26 11:37:57;;;;;;;14.38;3.60;;;8.90;99.90;;;;;;6180209;23;20024;-79
2023/03/26 11:40:30;;;;;;;12.77;3.33;;;9.00;99.90;;;;;;6154472;23;20329;-79
2023/03/26 11:43:01;;;;;;;16.73;3.35;;;9.10;99.90;;;;;;6155346;23;20023;-77
2023/03/26 11:45:35;;;;;;;14.15;3.72;;;9.10;99.90;;;;;;6236661;23;20016;-79
2023/03/26 11:48:08;;;;;;;16.15;4.00;;;9.10;99.90;;;;;;6216745;23;20086;-80
2023/03/26 11:50:39;;;;;;;15.75;3.90;;;9.20;99.90;;;;;;6243428;22;20008;-79
2023/03/26 11:53:37;;;;;;;18.60;3.90;;;9.30;99.90;;;;;;6241381;23;20036;-79
2023/03/26 11:56:05;;;;;;;14.75;3.20;;;9.40;99.90;;;;;;6239653;23;20051;-76
2023/03/26 11:58:41;;;;;;;14.82;3.45;;;9.50;99.90;;;;;;6242322;23;20150;-77
2023/03/26 12:01:31;;;;;;;12.80;3.47;;;9.40;99.90;;;;;;6243317;23;20015;-77
2023/03/26 12:04:18;;;;;;;15.15;3.83;;;9.20;99.90;;;;;;6217896;23;20016;-79
2023/03/26 12:06:52;;;;;;;17.80;4.25;;;9.10;99.90;;;;;;6243215;23;20008;-77
2023/03/26 12:09:19;;;;;;;15.65;4.00;;;9.20;99.90;;;;;;6242644;23;20014;-77
2023/03/26 12:11:47;;;;;;;18.83;3.53;;;9.50;99.90;;;;;;6245375;22;20027;-77
2023/03/26 12:14:20;;;;;;;10.85;3.05;;;9.80;99.90;;;;;;6243697;23;20065;-76
2023/03/26 12:16:59;;;;;;;18.63;3.53;;;10.00;99.90;;;;;;6245147;22;20369;-77
2023/03/26 12:19:25;;;;;;;18.02;4.35;;;9.90;99.90;;;;;;6243232;23;20355;-77
2023/03/26 12:21:52;;;;;;;13.88;3.40;;;9.80;99.90;;;;;;6243295;23;20015;-77
2023/03/26 12:24:28;;;;;;;12.77;3.38;;;9.70;99.90;;;;;;6244160;22;20446;-77
2023/03/26 12:27:02;;;;;;;13.82;3.45;;;9.40;99.90;;;;;;6244945;22;20008;-77
2023/03/26 12:29:33;;;;;;;19.90;6.70;;;9.20;99.90;;;;;;6245097;22;20185;-77
2023/03/26 12:32:13;;;;;;;17.75;5.40;;;9.10;99.90;;;;;;6217791;23;20077;-77
2023/03/26 12:34:39;;;;;;;24.17;6.63;;;9.10;99.90;;;;;;6217872;23;20070;-77
2023/03/26 12:37:07;;;;;;;16.13;3.95;;;9.10;99.90;;;;;;6243150;23;20016;-77
2023/03/26 12:39:41;;;;;;;23.90;6.60;;;9.00;99.90;;;;;;6242408;23;20647;-77
2023/03/26 12:42:28;;;;;;;21.40;7.60;;;9.00;99.90;;;;;;6217697;23;20012;-78
2023/03/26 12:44:58;;;;;;;16.15;5.22;;;9.20;99.90;;;;;;6243475;23;20008;-77
2023/03/26 12:47:31;;;;;;;20.23;8.70;;;9.20;99.90;;;;;;6217714;23;20008;-77
2023/03/26 12:49:57;;;;;;;23.70;5.15;;;9.30;99.90;;;;;;6243038;23;20339;-77
2023/03/26 12:52:29;;;;;;;18.98;6.60;;;9.40;99.90;;;;;;6243040;23;20012;-78
2023/03/26 12:55:07;;;;;;;18.00;5.43;;;9.40;99.90;;;;;;6242271;23;20023;-77
2023/03/26 12:57:39;;;;;;;20.70;5.53;;;9.20;99.90;;;;;;6243115;23;20390;-77
2023/03/26 13:00:23;;;;;;;20.05;6.68;;;9.00;99.90;;;;;;6217447;23;20009;-79
2023/03/26 13:03:09;;;;;;;14.45;3.47;;;9.20;99.90;;;;;;6242555;23;20024;-77
2023/03/26 13:05:52;;;;;;;17.67;3.45;;;9.30;99.90;;;;;;6217623;23;20043;-77
2023/03/26 13:08:38;;;;;;;18.10;6.27;;;9.00;99.90;;;;;;6216966;23;20316;-77
2023/03/26 13:11:04;;;;;;;18.70;6.78;;;9.20;99.90;;;;;;6217469;23;20354;-77
2023/03/26 13:13:42;;;;;;;18.52;4.35;;;9.20;99.90;;;;;;6242857;23;20524;-77
2023/03/26 13:16:22;;;;;;;15.35;4.40;;;9.20;99.90;;;;;;6217193;23;20197;-77
2023/03/26 13:19:06;;;;;;;16.45;3.38;;;9.20;99.90;;;;;;6242654;23;20008;-77
2023/03/26 13:22:07;;;;;;;14.70;2.83;;;9.10;99.90;;;;;;6242429;23;20012;-77
2023/03/26 13:24:47;;;;;;;19.00;4.20;;;9.20;99.90;;;;;;6242646;23;20019;-78